createdAt,value
2018-12-21T00:01:52.699Z,-2.92
2018-12-21T00:06:57.648Z,-2.95
2018-12-21T00:12:01.417Z,-2.89
2018-12-21T00:17:05.944Z,-2.67
2018-12-21T00:22:09.753Z,-2.61
2018-12-21T00:27:13.715Z,-2.52
2018-12-21T00:32:23.230Z,-2.45
2018-12-21T00:37:32.804Z,-2.22
2018-12-21T00:42:41.105Z,-2.37
2018-12-21T00:47:45.088Z,-2.23
2018-12-21T00:52:48.841Z,-2.07
2018-12-21T00:57:52.736Z,-2.09
2018-12-21T01:02:56.804Z,-2.04
2018-12-21T01:08:00.756Z,-2.44
2018-12-21T01:13:04.648Z,-2.37
2018-12-21T01:18:08.483Z,-2.21
2018-12-21T01:23:12.346Z,-2.13
2018-12-21T01:28:16.144Z,-1.98
2018-12-21T01:33:19.963Z,-1.85
2018-12-21T01:38:23.700Z,-1.89
2018-12-21T01:43:27.609Z,-1.81
2018-12-21T01:48:31.367Z,-1.69
2018-12-21T01:53:35.179Z,-1.59
2018-12-21T01:58:39.019Z,-1.70
2018-12-21T02:03:43.900Z,-1.58
2018-12-21T02:08:48.245Z,-1.50
2018-12-21T02:13:52.912Z,-1.43
2018-12-21T02:18:58.193Z,-1.52
2018-12-21T02:24:02.168Z,-1.35
2018-12-21T02:29:05.957Z,-1.24
2018-12-21T02:34:09.892Z,-1.05
2018-12-21T02:39:13.716Z,-1.17
2018-12-21T02:44:17.626Z,-1.19
2018-12-21T02:49:21.513Z,-1.22
2018-12-21T02:54:25.499Z,-1.18
2018-12-21T02:59:29.224Z,-1.29
2018-12-21T03:04:33.162Z,-1.43
2018-12-21T03:09:36.874Z,-1.43
2018-12-21T03:14:40.671Z,-1.35
2018-12-21T03:19:44.515Z,-1.40
2018-12-21T03:24:48.297Z,-1.55
2018-12-21T03:29:52.616Z,-1.63
2018-12-21T03:34:56.474Z,-1.69
2018-12-21T03:40:00.315Z,-1.55
2018-12-21T03:45:04.277Z,-1.65
2018-12-21T03:50:09.210Z,-1.71
2018-12-21T03:55:13.071Z,-1.65
2018-12-21T04:00:17.931Z,-1.37
2018-12-21T04:05:21.999Z,-1.30
2018-12-21T04:10:25.730Z,-1.12
2018-12-21T04:15:29.768Z,-1.11
2018-12-21T04:20:33.610Z,-1.23
2018-12-21T04:25:37.368Z,-1.27
2018-12-21T04:30:41.578Z,-1.34
2018-12-21T04:35:45.736Z,-1.22
2018-12-21T04:40:49.609Z,-1.14
2018-12-21T04:45:53.772Z,-1.38
2018-12-21T04:50:57.476Z,-1.44
2018-12-21T04:56:01.241Z,-1.51
2018-12-21T05:01:05.104Z,-1.32
2018-12-21T05:06:08.975Z,-1.28
2018-12-21T05:11:12.973Z,-1.18
2018-12-21T05:16:17.479Z,-1.33
2018-12-21T05:21:21.377Z,-1.38
2018-12-21T05:26:25.231Z,-1.54
2018-12-21T05:31:28.961Z,-1.57
2018-12-21T05:36:32.837Z,-1.53
2018-12-21T05:41:37.280Z,-1.32
2018-12-21T05:46:42.317Z,-1.14
2018-12-21T05:51:46.330Z,-0.99
2018-12-21T05:56:50.099Z,-0.95
2018-12-21T06:01:53.827Z,-1.08
2018-12-21T06:06:57.778Z,-1.19
2018-12-21T06:12:01.845Z,-1.30
2018-12-21T06:17:06.707Z,-1.34
2018-12-21T06:22:10.643Z,-1.27
2018-12-21T06:27:14.542Z,-1.34
2018-12-21T06:32:18.630Z,-1.23
2018-12-21T06:37:22.356Z,-1.21
2018-12-21T06:42:26.040Z,-1.04
2018-12-21T06:47:29.826Z,-1.07
2018-12-21T06:52:33.821Z,-0.94
2018-12-21T06:57:37.836Z,-1.06
2018-12-21T07:02:41.630Z,-1.09
2018-12-21T07:07:46.066Z,-1.05
2018-12-21T07:12:49.948Z,-0.74
2018-12-21T07:17:53.676Z,-0.62
2018-12-21T07:22:57.473Z,-0.32
2018-12-21T07:28:01.335Z,-0.29
2018-12-21T07:33:05.372Z,-0.09
2018-12-21T07:38:09.861Z,0.01
2018-12-21T07:43:13.785Z,-0.40
2018-12-21T07:48:17.525Z,-0.29
2018-12-21T07:53:21.259Z,-0.24
2018-12-21T07:58:25.029Z,-0.32
2018-12-21T08:03:28.809Z,-0.19
2018-12-21T08:08:32.818Z,-0.09
2018-12-21T08:13:37.036Z,0.11
2018-12-21T08:18:41.894Z,0.49
2018-12-21T08:23:45.648Z,0.73
2018-12-21T08:28:49.583Z,0.99
2018-12-21T08:33:53.901Z,1.13
2018-12-21T08:38:57.992Z,1.14
2018-12-21T08:44:02.329Z,0.81
2018-12-21T08:49:06.245Z,0.78
2018-12-21T08:54:10.405Z,0.81
2018-12-21T08:59:14.214Z,0.85
2018-12-21T09:04:18.066Z,0.45
2018-12-21T09:09:22.721Z,0.22
2018-12-21T09:14:26.528Z,0.32
2018-12-21T09:19:30.340Z,0.59
2018-12-21T09:24:34.225Z,0.81
2018-12-21T09:29:38.007Z,0.88
2018-12-21T09:34:42.797Z,1.00
2018-12-21T09:39:46.668Z,0.85
2018-12-21T09:44:52.636Z,1.17
2018-12-21T09:49:56.545Z,1.13
2018-12-21T09:55:09.806Z,0.97
2018-12-21T10:00:15.310Z,1.09
2018-12-21T10:05:19.195Z,1.13
2018-12-21T10:10:23.345Z,1.16
2018-12-21T10:15:28.784Z,1.07
2018-12-21T10:20:33.034Z,1.09
2018-12-21T10:25:37.949Z,1.20
2018-12-21T10:30:42.792Z,1.12
2018-12-21T10:35:46.988Z,1.40
2018-12-21T10:40:50.896Z,1.69
2018-12-21T10:45:54.666Z,1.64
2018-12-21T10:50:58.836Z,1.41
2018-12-21T10:56:05.846Z,1.34
2018-12-21T11:01:09.718Z,1.43
2018-12-21T11:06:13.438Z,1.25
2018-12-21T11:11:17.410Z,1.34
2018-12-21T11:16:21.523Z,1.37
2018-12-21T11:21:25.414Z,1.23
2018-12-21T11:26:29.380Z,1.61
2018-12-21T11:31:33.740Z,1.60
2018-12-21T11:36:38.004Z,1.38
2018-12-21T11:41:42.054Z,1.45
2018-12-21T11:46:46.183Z,1.34
2018-12-21T11:51:50.087Z,1.28
2018-12-21T11:56:54.078Z,1.54
2018-12-21T12:02:00.302Z,1.56
2018-12-21T12:07:05.701Z,1.57
2018-12-21T12:12:09.997Z,1.71
2018-12-21T12:17:14.988Z,1.83
2018-12-21T12:22:18.943Z,1.66
2018-12-21T12:27:26.008Z,1.60
2018-12-21T12:32:30.263Z,1.50
2018-12-21T12:37:35.514Z,1.64
2018-12-21T12:42:39.301Z,1.73
2018-12-21T12:47:43.025Z,1.57
2018-12-21T12:52:50.139Z,1.55
2018-12-21T12:57:54.087Z,1.72
2018-12-21T13:02:57.995Z,1.68
2018-12-21T13:08:01.955Z,1.89
2018-12-21T13:13:05.944Z,1.95
2018-12-21T13:18:09.830Z,1.84
2018-12-21T13:23:14.015Z,1.78
2018-12-21T13:28:18.025Z,1.82
2018-12-21T13:33:21.875Z,1.75
2018-12-21T13:38:25.741Z,1.67
2018-12-21T13:43:29.693Z,1.47
2018-12-21T13:48:33.727Z,1.35
2018-12-21T13:53:37.585Z,1.23
2018-12-21T13:58:41.576Z,0.98
2018-12-21T14:03:45.364Z,0.85
2018-12-21T14:08:49.366Z,0.73
2018-12-21T14:13:52.988Z,0.49
2018-12-21T14:18:56.800Z,0.42
2018-12-21T14:24:00.719Z,0.38
2018-12-21T14:29:04.688Z,0.33
2018-12-21T14:34:08.527Z,0.31
2018-12-21T14:39:12.701Z,0.18
2018-12-21T14:44:16.523Z,0.14
2018-12-21T14:49:20.379Z,0.09
2018-12-21T14:54:24.305Z,-0.06
2018-12-21T14:59:28.555Z,-0.21
2018-12-21T15:04:32.652Z,-0.25
2018-12-21T15:09:37.402Z,-0.19
2018-12-21T15:14:41.275Z,-0.22
2018-12-21T15:19:45.109Z,-0.19
2018-12-21T15:24:49.200Z,-0.16
2018-12-21T15:29:53.139Z,-0.13
2018-12-21T15:34:57.058Z,-0.13
2018-12-21T15:40:00.865Z,-0.06
2018-12-21T15:45:06.622Z,0.00
2018-12-21T15:50:11.963Z,-0.15
2018-12-21T15:55:15.747Z,-0.18
2018-12-21T16:00:21.700Z,-0.03
2018-12-21T16:05:25.782Z,-0.01
2018-12-21T16:10:29.800Z,0.14
2018-12-21T16:15:33.845Z,0.14
2018-12-21T16:20:37.725Z,0.15
2018-12-21T16:25:41.739Z,0.42
2018-12-21T16:30:45.697Z,0.33
2018-12-21T16:35:49.590Z,0.41
2018-12-21T16:40:53.632Z,0.39
2018-12-21T16:45:57.709Z,0.40
2018-12-21T16:51:02.019Z,0.32
2018-12-21T16:56:12.372Z,0.33
2018-12-21T17:01:12.128Z,0.30
2018-12-21T17:06:16.360Z,0.21
2018-12-21T17:11:20.297Z,0.24
2018-12-21T17:16:24.296Z,0.21
2018-12-21T17:21:28.179Z,0.03
2018-12-21T17:26:32.090Z,0.12
2018-12-21T17:31:36.136Z,0.09
2018-12-21T17:36:40.214Z,0.10
2018-12-21T17:41:44.439Z,-0.13
2018-12-21T17:46:48.454Z,-0.03
2018-12-21T17:51:52.367Z,0.09
2018-12-21T17:56:56.306Z,0.04
2018-12-21T18:02:00.150Z,-0.01
2018-12-21T18:07:05.641Z,-0.30
2018-12-21T18:12:09.901Z,-0.33
2018-12-21T18:17:13.935Z,-0.36
2018-12-21T18:22:20.480Z,-0.30
2018-12-21T18:27:24.972Z,-0.23
2018-12-21T18:32:34.090Z,-0.26
2018-12-21T18:37:50.450Z,-0.20
2018-12-21T18:42:54.522Z,-0.24
2018-12-21T18:47:59.191Z,-0.28
2018-12-21T18:53:03.171Z,-0.29
2018-12-21T18:58:07.272Z,-0.25
2018-12-21T19:03:13.303Z,-0.15
2018-12-21T19:08:17.399Z,0.03
2018-12-21T19:13:21.375Z,-0.28
2018-12-21T19:18:25.169Z,-0.67
2018-12-21T19:23:29.047Z,-0.46
2018-12-21T19:28:35.188Z,-0.43
2018-12-21T19:33:39.330Z,-0.30
2018-12-21T19:38:43.701Z,-0.27
2018-12-21T19:43:47.729Z,-0.62
2018-12-21T19:48:51.572Z,-0.73
2018-12-21T19:53:55.998Z,-0.61
2018-12-21T19:58:59.841Z,-0.42
2018-12-21T20:04:03.771Z,-0.41
2018-12-21T20:09:07.992Z,-0.57
2018-12-21T20:14:12.182Z,-0.47
2018-12-21T20:19:16.334Z,-0.48
2018-12-21T20:24:23.294Z,-0.35
2018-12-21T20:29:27.334Z,-0.72
2018-12-21T20:34:31.699Z,-0.84
2018-12-21T20:39:37.777Z,-0.80
2018-12-21T20:44:41.637Z,-0.67
2018-12-21T20:49:45.578Z,-0.82
2018-12-21T20:54:49.467Z,-0.74
2018-12-21T20:59:53.196Z,-0.72
2018-12-21T21:04:57.214Z,-0.84
2018-12-21T21:10:01.113Z,-0.82
2018-12-21T21:15:06.488Z,-0.80
2018-12-21T21:20:12.575Z,-0.79
2018-12-21T21:25:17.006Z,-0.93
2018-12-21T21:30:21.131Z,-0.97
2018-12-21T21:35:25.036Z,-0.80
2018-12-21T21:40:29.049Z,-0.84
2018-12-21T21:45:32.888Z,-0.73
2018-12-21T21:50:36.875Z,-0.65
2018-12-21T21:55:40.751Z,-0.94
2018-12-21T22:00:44.613Z,-0.87
2018-12-21T22:05:48.620Z,-0.90
2018-12-21T22:10:52.536Z,-0.83
2018-12-21T22:15:57.986Z,-1.06
2018-12-21T22:21:01.939Z,-1.08
2018-12-21T22:26:05.840Z,-1.12
2018-12-21T22:31:09.899Z,-1.01
2018-12-21T22:36:13.857Z,-1.09
2018-12-21T22:41:17.615Z,-0.99
2018-12-21T22:46:21.377Z,-1.21
2018-12-21T22:51:26.565Z,-1.17
2018-12-21T22:56:30.537Z,-1.13
2018-12-21T23:01:34.330Z,-1.22
2018-12-21T23:06:38.182Z,-1.08
2018-12-21T23:11:42.042Z,-1.22
2018-12-21T23:16:45.977Z,-1.20
2018-12-21T23:21:50.939Z,-1.35
2018-12-21T23:26:55.275Z,-1.21
2018-12-21T23:31:59.405Z,-1.05
2018-12-21T23:37:06.569Z,-1.18
2018-12-21T23:42:10.497Z,-1.08
2018-12-21T23:47:14.332Z,-1.15
2018-12-21T23:52:18.196Z,-1.18
2018-12-21T23:57:21.915Z,-1.02
